createdAt,value
2022-11-30T00:00:13.913Z,26.98
2022-11-30T00:01:35.727Z,25.06
2022-11-30T00:02:37.535Z,25.89
2022-11-30T00:03:39.497Z,25.53
2022-11-30T00:04:41.269Z,27.00
2022-11-30T00:05:43.018Z,26.36
2022-11-30T00:06:44.756Z,26.41
2022-11-30T00:07:47.524Z,27.06
2022-11-30T00:08:57.099Z,26.29
2022-11-30T00:09:58.924Z,26.27
2022-11-30T00:11:00.987Z,26.11
2022-11-30T00:12:02.760Z,26.54
2022-11-30T00:13:05.077Z,28.47
2022-11-30T00:14:06.836Z,25.00
2022-11-30T00:15:13.989Z,25.97
2022-11-30T00:16:15.893Z,27.32
2022-11-30T00:17:17.725Z,25.85
2022-11-30T00:18:19.658Z,25.60
2022-11-30T00:19:21.475Z,25.91
2022-11-30T00:20:23.699Z,25.57
2022-11-30T00:21:25.423Z,25.72
2022-11-30T00:22:27.195Z,25.21
2022-11-30T00:23:34.056Z,28.18
2022-11-30T00:24:35.797Z,26.81
2022-11-30T00:25:37.590Z,26.41
2022-11-30T00:26:39.383Z,25.76
2022-11-30T00:27:41.253Z,25.43
2022-11-30T00:29:03.071Z,25.20
2022-11-30T00:30:06.054Z,25.89
2022-11-30T00:31:12.161Z,25.41
2022-11-30T00:32:13.999Z,26.34
2022-11-30T00:33:15.741Z,25.69
2022-11-30T00:34:17.752Z,25.83
2022-11-30T00:35:19.463Z,26.24
2022-11-30T00:36:22.632Z,26.22
2022-11-30T00:37:24.662Z,26.79
2022-11-30T00:38:26.753Z,25.96
2022-11-30T00:39:33.884Z,25.14
2022-11-30T00:40:37.091Z,27.64
2022-11-30T00:41:38.800Z,28.67
2022-11-30T00:42:40.551Z,28.17
2022-11-30T00:43:42.385Z,27.03
2022-11-30T00:44:44.321Z,26.95
2022-11-30T00:45:47.106Z,27.01
2022-11-30T00:46:48.927Z,27.02
2022-11-30T00:47:50.700Z,27.22
2022-11-30T00:48:52.457Z,26.46
2022-11-30T00:49:54.415Z,27.20
2022-11-30T00:50:56.212Z,27.38
2022-11-30T00:51:58.084Z,26.31
2022-11-30T00:53:00.287Z,25.45
2022-11-30T00:54:02.108Z,26.27
2022-11-30T00:55:04.569Z,28.10
2022-11-30T00:56:07.343Z,26.57
2022-11-30T00:57:09.093Z,25.69
2022-11-30T00:58:12.089Z,26.49
2022-11-30T00:59:15.199Z,24.61
2022-11-30T01:00:17.337Z,24.92
2022-11-30T01:01:19.110Z,25.15
2022-11-30T01:02:21.003Z,24.88
2022-11-30T01:03:22.839Z,22.56
2022-11-30T01:04:24.596Z,23.46
2022-11-30T01:05:26.574Z,24.80
2022-11-30T01:06:28.771Z,24.52
2022-11-30T01:07:30.706Z,24.24
2022-11-30T01:08:33.231Z,24.85
2022-11-30T01:09:34.962Z,24.92
2022-11-30T01:10:39.390Z,25.66
2022-11-30T01:11:41.106Z,26.10
2022-11-30T01:12:42.995Z,26.12
2022-11-30T01:13:44.866Z,25.85
2022-11-30T01:14:46.834Z,24.72
2022-11-30T01:15:48.865Z,25.50
2022-11-30T01:16:55.967Z,25.57
2022-11-30T01:18:01.226Z,24.74
2022-11-30T01:19:04.018Z,24.58
2022-11-30T01:20:08.076Z,25.61
2022-11-30T01:21:13.826Z,25.62
2022-11-30T01:22:15.588Z,25.05
2022-11-30T01:23:17.376Z,25.18
2022-11-30T01:24:19.200Z,24.44
2022-11-30T01:25:21.091Z,25.79
2022-11-30T01:26:23.827Z,25.00
2022-11-30T01:27:25.665Z,25.00
2022-11-30T01:28:27.597Z,24.89
2022-11-30T01:29:29.419Z,26.25
2022-11-30T01:30:31.244Z,26.22
2022-11-30T01:31:33.233Z,26.24
2022-11-30T01:32:35.021Z,24.96
2022-11-30T01:33:36.777Z,25.03
2022-11-30T01:34:38.482Z,25.03
2022-11-30T01:35:40.226Z,26.42
2022-11-30T01:36:43.647Z,27.22
2022-11-30T01:37:45.518Z,25.50
2022-11-30T01:38:51.049Z,26.30
2022-11-30T01:39:52.830Z,25.20
2022-11-30T01:40:54.618Z,25.61
2022-11-30T01:41:56.546Z,27.18
2022-11-30T01:42:58.572Z,26.96
2022-11-30T01:44:06.033Z,26.63
2022-11-30T01:45:12.878Z,26.97
2022-11-30T01:46:17.544Z,27.22
2022-11-30T01:47:32.089Z,27.85
2022-11-30T01:48:33.872Z,28.16
2022-11-30T01:49:47.714Z,27.96
2022-11-30T01:50:49.482Z,25.96
2022-11-30T01:52:02.898Z,26.65
2022-11-30T01:53:10.956Z,25.66
2022-11-30T01:54:18.042Z,26.50
2022-11-30T01:55:42.752Z,26.86
2022-11-30T01:56:52.421Z,26.11
2022-11-30T01:58:16.887Z,26.29
2022-11-30T01:59:22.317Z,25.82
2022-11-30T02:00:24.357Z,24.99
2022-11-30T02:01:26.331Z,26.25
2022-11-30T02:02:48.069Z,26.80
2022-11-30T02:04:00.033Z,27.00
2022-11-30T02:05:02.598Z,27.44
2022-11-30T02:06:04.634Z,28.61
2022-11-30T02:07:08.667Z,27.84
2022-11-30T02:08:11.755Z,25.96
2022-11-30T02:09:17.979Z,25.49
2022-11-30T02:10:28.245Z,25.03
2022-11-30T02:11:30.089Z,24.09
2022-11-30T02:13:08.325Z,23.29
2022-11-30T02:14:26.601Z,22.89
2022-11-30T02:15:42.137Z,24.35
2022-11-30T02:17:01.162Z,22.11
2022-11-30T02:18:13.476Z,21.89
2022-11-30T02:19:49.574Z,23.08
2022-11-30T02:20:54.034Z,22.08
2022-11-30T02:22:33.012Z,23.20
2022-11-30T02:24:03.981Z,22.88
2022-11-30T02:25:05.897Z,24.70
2022-11-30T02:26:50.214Z,24.12
2022-11-30T02:28:13.022Z,24.62
2022-11-30T02:29:29.308Z,24.25
2022-11-30T02:30:37.925Z,25.19
2022-11-30T02:31:59.482Z,23.56
2022-11-30T02:33:11.295Z,24.77
2022-11-30T02:34:18.380Z,24.69
2022-11-30T02:35:27.147Z,22.75
2022-11-30T02:36:31.701Z,22.57
2022-11-30T02:37:37.009Z,24.93
2022-11-30T02:38:40.693Z,25.28
2022-11-30T02:39:44.200Z,26.45
2022-11-30T02:40:46.281Z,29.00
2022-11-30T02:41:48.153Z,30.13
2022-11-30T02:42:53.941Z,29.51
2022-11-30T02:43:55.855Z,29.63
2022-11-30T02:44:58.032Z,26.92
2022-11-30T02:46:26.634Z,26.18
2022-11-30T02:47:37.855Z,27.35
2022-11-30T02:48:50.136Z,29.99
2022-11-30T02:50:01.173Z,32.26
2022-11-30T02:51:07.905Z,35.07
2022-11-30T02:52:12.888Z,37.39
2022-11-30T02:53:14.739Z,34.00
2022-11-30T02:54:18.381Z,30.16
2022-11-30T02:55:20.757Z,27.87
2022-11-30T02:56:23.108Z,29.24
2022-11-30T02:57:24.847Z,27.49
2022-11-30T02:58:26.671Z,27.18
2022-11-30T02:59:29.589Z,28.09
2022-11-30T03:00:32.048Z,28.10
2022-11-30T03:01:33.889Z,26.49
2022-11-30T03:02:35.737Z,27.27
2022-11-30T03:03:37.624Z,27.56
2022-11-30T03:04:39.409Z,26.46
2022-11-30T03:05:41.176Z,27.77
2022-11-30T03:06:43.219Z,26.45
2022-11-30T03:07:45.248Z,26.72
2022-11-30T03:08:47.036Z,25.76
2022-11-30T03:09:48.982Z,26.69
2022-11-30T03:10:50.704Z,27.61
2022-11-30T03:11:52.467Z,27.69
2022-11-30T03:12:58.670Z,27.41
2022-11-30T03:14:00.508Z,26.70
2022-11-30T03:15:02.310Z,26.64
2022-11-30T03:16:11.858Z,26.97
2022-11-30T03:17:13.764Z,26.12
2022-11-30T03:18:15.500Z,25.79
2022-11-30T03:19:17.336Z,27.38
2022-11-30T03:20:19.112Z,25.45
2022-11-30T03:21:20.889Z,24.75
2022-11-30T03:22:23.729Z,24.04
2022-11-30T03:23:25.467Z,23.85
2022-11-30T03:24:27.392Z,23.17
2022-11-30T03:25:29.819Z,24.06
2022-11-30T03:26:31.572Z,24.64
2022-11-30T03:27:33.573Z,23.12
2022-11-30T03:28:36.907Z,24.51
2022-11-30T03:29:39.357Z,24.04
2022-11-30T03:30:41.361Z,25.21
2022-11-30T03:31:43.096Z,24.37
2022-11-30T03:32:44.816Z,24.04
2022-11-30T03:33:46.560Z,23.98
2022-11-30T03:34:48.543Z,24.52
2022-11-30T03:36:02.510Z,23.86
2022-11-30T03:37:04.328Z,22.69
2022-11-30T03:38:06.221Z,22.85
2022-11-30T03:39:08.012Z,22.57
2022-11-30T03:40:10.535Z,22.75
2022-11-30T03:41:16.479Z,22.11
2022-11-30T03:42:18.331Z,21.08
2022-11-30T03:43:20.087Z,22.53
2022-11-30T03:44:21.903Z,22.28
2022-11-30T03:45:23.654Z,22.16
2022-11-30T03:46:27.230Z,22.51
2022-11-30T03:47:29.222Z,23.42
2022-11-30T03:48:31.671Z,22.41
2022-11-30T03:49:33.512Z,23.31
2022-11-30T03:50:35.222Z,24.24
2022-11-30T03:51:37.001Z,22.76
2022-11-30T03:52:38.833Z,22.96
2022-11-30T03:53:41.349Z,22.51
2022-11-30T03:54:43.149Z,23.47
2022-11-30T03:55:45.355Z,23.94
2022-11-30T03:56:47.133Z,23.53
2022-11-30T03:57:48.976Z,23.51
2022-11-30T03:58:51.303Z,22.56
2022-11-30T03:59:53.073Z,22.42
2022-11-30T04:01:05.876Z,23.35
2022-11-30T04:02:07.660Z,23.85
2022-11-30T04:03:09.786Z,24.46
2022-11-30T04:04:12.629Z,23.92
2022-11-30T04:05:14.554Z,24.07
2022-11-30T04:06:17.923Z,25.30
2022-11-30T04:07:19.681Z,24.23
2022-11-30T04:08:21.526Z,24.70
2022-11-30T04:09:23.287Z,24.73
2022-11-30T04:10:25.062Z,23.18
2022-11-30T04:11:26.816Z,23.26
2022-11-30T04:12:28.579Z,22.58
2022-11-30T04:13:32.299Z,22.22
2022-11-30T04:14:34.041Z,23.13
2022-11-30T04:15:35.813Z,22.73
2022-11-30T04:16:37.593Z,23.08
2022-11-30T04:17:39.319Z,23.20
2022-11-30T04:18:41.442Z,23.87
2022-11-30T04:19:43.158Z,24.12
2022-11-30T04:20:45.093Z,24.07
2022-11-30T04:21:46.837Z,24.20
2022-11-30T04:22:48.621Z,24.29
2022-11-30T04:23:50.385Z,24.58
2022-11-30T04:24:52.167Z,24.23
2022-11-30T04:25:53.889Z,22.80
2022-11-30T04:26:55.612Z,24.05
2022-11-30T04:27:57.469Z,24.04
2022-11-30T04:29:03.228Z,23.87
2022-11-30T04:30:07.207Z,23.27
2022-11-30T04:31:09.702Z,23.77
2022-11-30T04:32:11.565Z,22.79
2022-11-30T04:33:15.392Z,22.55
2022-11-30T04:34:17.185Z,23.18
2022-11-30T04:35:18.926Z,23.54
2022-11-30T04:36:21.549Z,24.32
2022-11-30T04:37:23.287Z,22.09
2022-11-30T04:38:26.354Z,21.80
2022-11-30T04:39:28.102Z,22.86
2022-11-30T04:40:29.819Z,23.22
2022-11-30T04:41:31.715Z,23.78
2022-11-30T04:42:33.451Z,23.47
2022-11-30T04:43:36.333Z,23.01
2022-11-30T04:44:38.058Z,21.43
2022-11-30T04:45:41.067Z,23.45
2022-11-30T04:46:42.908Z,23.03
2022-11-30T04:47:44.710Z,24.69
2022-11-30T04:48:46.451Z,24.80
2022-11-30T04:49:48.263Z,25.44
2022-11-30T04:50:50.115Z,24.88
2022-11-30T04:51:51.869Z,25.63
2022-11-30T04:52:53.812Z,24.68
2022-11-30T04:53:55.609Z,23.76
2022-11-30T04:54:57.311Z,23.27
2022-11-30T04:55:59.369Z,23.57
2022-11-30T04:57:01.150Z,23.53
2022-11-30T04:58:02.913Z,23.54
2022-11-30T04:59:04.803Z,23.63
2022-11-30T05:00:07.486Z,21.60
2022-11-30T05:01:09.412Z,21.85
2022-11-30T05:02:11.434Z,22.05
2022-11-30T05:03:13.207Z,22.00
2022-11-30T05:04:15.132Z,22.22
2022-11-30T05:05:17.409Z,21.93
2022-11-30T05:06:19.209Z,21.52
2022-11-30T05:07:21.019Z,22.09
2022-11-30T05:08:23.045Z,22.54
2022-11-30T05:09:24.797Z,22.67
2022-11-30T05:10:28.252Z,22.83
2022-11-30T05:11:30.034Z,22.07
2022-11-30T05:12:32.267Z,21.50
2022-11-30T05:13:34.017Z,22.03
2022-11-30T05:14:35.862Z,22.09
2022-11-30T05:15:37.625Z,22.39
2022-11-30T05:16:39.385Z,22.71
2022-11-30T05:17:41.173Z,22.69
2022-11-30T05:18:42.916Z,21.74
2022-11-30T05:19:44.659Z,21.15
2022-11-30T05:20:53.511Z,21.53
2022-11-30T05:21:55.385Z,22.43
2022-11-30T05:22:57.711Z,22.19
2022-11-30T05:23:59.568Z,21.53
2022-11-30T05:25:01.653Z,21.19
2022-11-30T05:26:04.027Z,21.48
2022-11-30T05:27:12.686Z,22.46
2022-11-30T05:28:16.582Z,22.86
2022-11-30T05:29:18.500Z,21.24
2022-11-30T05:30:20.374Z,21.76
2022-11-30T05:31:22.192Z,21.43
2022-11-30T05:32:24.056Z,22.22
2022-11-30T05:33:25.783Z,20.99
2022-11-30T05:34:28.009Z,21.05
2022-11-30T05:35:29.797Z,22.74
2022-11-30T05:36:31.549Z,21.69
2022-11-30T05:37:33.320Z,21.52
2022-11-30T05:38:35.055Z,22.33
2022-11-30T05:39:36.909Z,23.18
2022-11-30T05:40:38.706Z,21.76
2022-11-30T05:41:40.473Z,21.10
2022-11-30T05:42:42.395Z,21.29
2022-11-30T05:43:44.856Z,21.46
2022-11-30T05:44:48.037Z,20.75
2022-11-30T05:45:50.050Z,21.10
2022-11-30T05:46:51.857Z,20.90
2022-11-30T05:47:54.067Z,21.26
2022-11-30T05:48:55.813Z,21.33
2022-11-30T05:49:57.561Z,20.65
2022-11-30T05:51:17.566Z,21.24
2022-11-30T05:52:19.314Z,20.69
2022-11-30T05:53:21.122Z,21.03
2022-11-30T05:54:22.865Z,21.04
2022-11-30T05:55:25.102Z,21.72
2022-11-30T05:56:26.882Z,21.63
2022-11-30T05:57:28.690Z,20.88
2022-11-30T05:58:30.573Z,21.42
2022-11-30T05:59:32.452Z,20.89
2022-11-30T06:00:34.217Z,20.61
2022-11-30T06:01:36.003Z,20.14
2022-11-30T06:02:37.861Z,21.03
2022-11-30T06:03:39.850Z,21.34
2022-11-30T06:04:41.632Z,20.84
2022-11-30T06:05:43.355Z,20.34
2022-11-30T06:06:45.090Z,21.48
2022-11-30T06:07:46.827Z,19.77
2022-11-30T06:08:50.622Z,19.90
2022-11-30T06:09:52.348Z,20.54
2022-11-30T06:10:54.542Z,20.57
2022-11-30T06:11:56.245Z,20.20
2022-11-30T06:12:58.020Z,20.00
2022-11-30T06:13:59.811Z,20.48
2022-11-30T06:15:01.603Z,20.34
2022-11-30T06:16:04.758Z,20.26
2022-11-30T06:17:06.801Z,21.57
2022-11-30T06:18:12.665Z,20.82
2022-11-30T06:19:14.406Z,20.89
2022-11-30T06:20:16.302Z,19.98
2022-11-30T06:21:22.724Z,19.76
2022-11-30T06:22:26.328Z,19.63
2022-11-30T06:23:28.675Z,20.87
2022-11-30T06:24:30.550Z,21.18
2022-11-30T06:25:32.459Z,21.01
2022-11-30T06:26:34.170Z,22.69
2022-11-30T06:27:35.897Z,22.54
2022-11-30T06:28:38.339Z,22.67
2022-11-30T06:29:40.115Z,22.58
2022-11-30T06:30:42.024Z,21.97
2022-11-30T06:31:44.326Z,24.02
2022-11-30T06:32:51.947Z,24.18
2022-11-30T06:33:57.557Z,21.60
2022-11-30T06:34:59.362Z,21.76
2022-11-30T06:36:01.225Z,21.83
2022-11-30T06:37:02.972Z,20.87
2022-11-30T06:38:04.836Z,20.68
2022-11-30T06:39:06.977Z,20.79
2022-11-30T06:40:12.463Z,20.78
2022-11-30T06:41:14.322Z,20.14
2022-11-30T06:42:16.189Z,21.09
2022-11-30T06:43:18.824Z,20.89
2022-11-30T06:44:20.980Z,20.99
2022-11-30T06:45:22.834Z,21.82
2022-11-30T06:46:25.083Z,21.51
2022-11-30T06:47:28.161Z,20.88
2022-11-30T06:48:30.199Z,22.56
2022-11-30T06:49:31.959Z,23.33
2022-11-30T06:50:34.011Z,21.56
2022-11-30T06:51:37.333Z,21.52
2022-11-30T06:52:39.063Z,21.32
2022-11-30T06:53:44.391Z,20.19
2022-11-30T06:54:46.505Z,20.15
2022-11-30T06:55:48.643Z,19.85
2022-11-30T06:56:50.439Z,20.66
2022-11-30T06:57:52.210Z,19.88
2022-11-30T06:58:54.409Z,19.68
2022-11-30T06:59:57.331Z,19.68
2022-11-30T07:00:59.268Z,19.74
2022-11-30T07:02:07.541Z,21.21
2022-11-30T07:03:11.956Z,20.76
2022-11-30T07:04:13.707Z,22.37
2022-11-30T07:05:15.730Z,22.21
2022-11-30T07:06:17.869Z,21.23
2022-11-30T07:07:19.973Z,20.91
2022-11-30T07:08:21.980Z,21.66
2022-11-30T07:09:23.727Z,22.13
2022-11-30T07:10:25.500Z,21.61
2022-11-30T07:11:27.863Z,22.03
2022-11-30T07:12:29.634Z,21.90
2022-11-30T07:13:31.770Z,21.92
2022-11-30T07:14:33.560Z,22.92
2022-11-30T07:15:35.831Z,25.29
2022-11-30T07:16:38.215Z,27.70
2022-11-30T07:17:40.162Z,28.68
2022-11-30T07:18:41.962Z,35.48
2022-11-30T07:19:43.780Z,37.61
2022-11-30T07:20:45.497Z,35.88
2022-11-30T07:21:47.222Z,32.80
2022-11-30T07:22:48.955Z,34.38
2022-11-30T07:24:09.485Z,39.20
2022-11-30T07:25:29.608Z,33.53
2022-11-30T07:26:31.435Z,36.01
2022-11-30T07:27:33.183Z,30.80
2022-11-30T07:28:46.834Z,30.64
2022-11-30T07:29:51.600Z,35.41
2022-11-30T07:30:53.423Z,33.90
2022-11-30T07:31:55.866Z,35.58
2022-11-30T07:32:57.763Z,37.67
2022-11-30T07:34:05.750Z,33.55
2022-11-30T07:35:08.119Z,30.44
2022-11-30T07:36:10.377Z,30.46
2022-11-30T07:37:12.310Z,33.76
2022-11-30T07:38:14.089Z,32.93
2022-11-30T07:39:16.073Z,33.98
2022-11-30T07:40:18.041Z,35.97
2022-11-30T07:41:19.778Z,31.34
2022-11-30T07:42:23.205Z,27.73
2022-11-30T07:43:25.008Z,25.18
2022-11-30T07:44:28.040Z,24.42
2022-11-30T07:45:29.900Z,23.98
2022-11-30T07:46:36.192Z,23.07
2022-11-30T07:47:38.027Z,23.48
2022-11-30T07:48:40.163Z,24.23
2022-11-30T07:49:41.998Z,22.50
2022-11-30T07:50:43.775Z,22.45
2022-11-30T07:51:45.739Z,22.80
2022-11-30T07:52:47.490Z,25.10
2022-11-30T07:53:50.437Z,24.51
2022-11-30T07:54:52.224Z,25.00
2022-11-30T07:55:56.985Z,24.56
2022-11-30T07:56:58.956Z,23.19
2022-11-30T07:58:00.724Z,22.05
2022-11-30T07:59:03.763Z,22.27
2022-11-30T08:00:06.469Z,23.92
2022-11-30T08:01:17.314Z,23.63
2022-11-30T08:02:19.346Z,25.38
2022-11-30T08:03:21.402Z,25.04
2022-11-30T08:04:23.524Z,24.42
2022-11-30T08:05:25.320Z,24.17
2022-11-30T08:06:29.826Z,27.99
2022-11-30T08:07:31.685Z,30.60
2022-11-30T08:08:36.529Z,29.74
2022-11-30T08:09:38.358Z,26.18
2022-11-30T08:10:40.099Z,23.90
2022-11-30T08:11:42.061Z,24.23
2022-11-30T08:12:43.774Z,23.79
2022-11-30T08:13:45.960Z,26.21
2022-11-30T08:15:18.188Z,25.52
2022-11-30T08:16:19.064Z,24.40
2022-11-30T08:17:20.862Z,25.01
2022-11-30T08:18:22.687Z,27.57
2022-11-30T08:19:24.439Z,25.75
2022-11-30T08:20:26.219Z,25.25
2022-11-30T08:21:28.007Z,24.64
2022-11-30T08:22:30.101Z,25.04
2022-11-30T08:23:38.040Z,25.97
2022-11-30T08:24:39.846Z,26.04
2022-11-30T08:25:41.642Z,24.33
2022-11-30T08:26:43.461Z,23.90
2022-11-30T08:27:45.289Z,24.50
2022-11-30T08:28:49.134Z,25.61
2022-11-30T08:29:51.045Z,27.82
2022-11-30T08:30:52.877Z,26.35
2022-11-30T08:31:55.419Z,27.60
2022-11-30T08:32:58.062Z,27.47
2022-11-30T08:34:02.982Z,24.07
2022-11-30T08:35:05.339Z,23.34
2022-11-30T08:36:08.091Z,22.30
2022-11-30T08:37:09.936Z,21.73
2022-11-30T08:38:11.774Z,24.04
2022-11-30T08:39:14.005Z,24.49
2022-11-30T08:40:15.946Z,24.61
2022-11-30T08:41:21.984Z,24.90
2022-11-30T08:42:23.729Z,25.01
2022-11-30T08:43:25.506Z,25.56
2022-11-30T08:44:28.372Z,25.03
2022-11-30T08:45:30.193Z,25.18
2022-11-30T08:47:55.425Z,25.63
2022-11-30T08:49:12.997Z,24.53
2022-11-30T08:50:19.550Z,22.78
2022-11-30T08:51:21.927Z,22.13
2022-11-30T08:52:24.045Z,21.65
2022-11-30T08:53:26.376Z,22.00
2022-11-30T08:54:28.105Z,21.52
2022-11-30T08:55:29.887Z,21.16
2022-11-30T08:56:31.670Z,20.87
2022-11-30T08:57:34.002Z,22.85
2022-11-30T08:58:37.943Z,23.27
2022-11-30T08:59:40.095Z,23.58
2022-11-30T09:00:42.071Z,23.72
2022-11-30T09:01:43.893Z,27.06
2022-11-30T09:02:45.718Z,24.44
2022-11-30T09:03:50.613Z,25.28
2022-11-30T09:04:53.543Z,31.17
2022-11-30T09:05:55.359Z,37.14
2022-11-30T09:06:59.389Z,34.07
2022-11-30T09:08:01.455Z,39.79
2022-11-30T09:09:03.576Z,48.81
2022-11-30T09:10:06.116Z,38.32
2022-11-30T09:11:19.923Z,36.83
2022-11-30T09:12:21.934Z,47.87
2022-11-30T09:13:23.863Z,50.05
2022-11-30T09:14:25.623Z,37.44
2022-11-30T09:15:28.018Z,35.21
2022-11-30T09:16:30.034Z,34.85
2022-11-30T09:17:32.166Z,30.40
2022-11-30T09:18:34.178Z,32.36
2022-11-30T09:19:35.982Z,31.23
2022-11-30T09:20:37.778Z,27.83
2022-11-30T09:21:39.641Z,27.47
2022-11-30T09:22:42.161Z,26.59
2022-11-30T09:23:45.968Z,24.26
2022-11-30T09:24:48.147Z,24.49
2022-11-30T09:25:58.694Z,25.29
2022-11-30T09:27:00.837Z,22.59
2022-11-30T09:28:02.632Z,22.71
2022-11-30T09:29:04.599Z,24.28
2022-11-30T09:30:07.277Z,23.15
2022-11-30T09:31:19.466Z,21.87
2022-11-30T09:32:23.449Z,20.42
2022-11-30T09:33:25.225Z,20.17
2022-11-30T09:34:27.011Z,19.59
2022-11-30T09:35:28.810Z,19.28
2022-11-30T09:36:31.097Z,20.64
2022-11-30T09:37:33.453Z,20.92
2022-11-30T09:38:36.136Z,19.70
2022-11-30T09:39:38.049Z,20.08
2022-11-30T09:40:41.864Z,19.95
2022-11-30T09:41:55.811Z,21.14
2022-11-30T09:43:15.172Z,20.93
2022-11-30T09:44:46.538Z,21.56
2022-11-30T09:45:57.599Z,31.40
2022-11-30T09:47:12.278Z,29.89
2022-11-30T09:48:22.944Z,28.62
2022-11-30T09:49:30.801Z,30.49
2022-11-30T09:50:47.297Z,23.08
2022-11-30T09:51:52.524Z,22.64
2022-11-30T09:53:00.900Z,28.73
2022-11-30T09:54:12.205Z,29.20
2022-11-30T09:55:26.836Z,25.85
2022-11-30T09:56:37.808Z,21.25
2022-11-30T09:57:47.075Z,20.38
2022-11-30T09:58:56.785Z,22.63
2022-11-30T10:00:02.963Z,22.92
2022-11-30T10:01:19.250Z,23.40
2022-11-30T10:02:38.184Z,23.24
2022-11-30T10:03:40.455Z,27.87
2022-11-30T10:04:42.757Z,25.32
2022-11-30T10:06:31.090Z,25.71
2022-11-30T10:07:57.750Z,27.08
2022-11-30T10:09:21.015Z,36.77
2022-11-30T10:10:40.917Z,34.35
2022-11-30T10:12:00.217Z,28.96
2022-11-30T10:13:24.780Z,26.30
2022-11-30T10:14:47.402Z,28.36
2022-11-30T10:16:14.123Z,28.19
2022-11-30T10:17:36.085Z,28.48
2022-11-30T10:18:38.124Z,24.63
2022-11-30T10:20:11.679Z,23.23
2022-11-30T10:21:13.294Z,20.55
2022-11-30T10:22:48.049Z,20.46
2022-11-30T10:24:11.285Z,19.79
2022-11-30T10:25:29.065Z,18.32
2022-11-30T10:26:38.142Z,18.39
2022-11-30T10:27:52.536Z,18.96
2022-11-30T10:29:02.807Z,19.39
2022-11-30T10:30:16.054Z,18.67
2022-11-30T10:31:20.649Z,18.65
2022-11-30T10:32:33.539Z,20.23
2022-11-30T10:33:49.608Z,18.21
2022-11-30T10:34:58.434Z,18.29
2022-11-30T10:36:12.422Z,18.90
2022-11-30T10:37:22.783Z,20.12
2022-11-30T10:38:31.806Z,18.74
2022-11-30T10:40:00.995Z,18.53
2022-11-30T10:41:16.282Z,18.04
2022-11-30T10:42:39.166Z,17.81
2022-11-30T10:43:51.827Z,19.88
2022-11-30T10:45:15.365Z,21.07
2022-11-30T10:46:33.002Z,20.15
2022-11-30T10:47:40.825Z,23.11
2022-11-30T10:48:54.560Z,24.80
2022-11-30T10:49:56.373Z,52.27
2022-11-30T10:51:00.195Z,54.59
2022-11-30T10:52:07.381Z,55.02
2022-11-30T10:53:12.365Z,39.19
2022-11-30T10:54:20.336Z,23.38
2022-11-30T10:55:25.150Z,21.64
2022-11-30T10:56:26.941Z,22.06
2022-11-30T10:57:32.474Z,23.47
2022-11-30T10:58:40.222Z,34.41
2022-11-30T10:59:48.251Z,70.68
2022-11-30T11:01:04.286Z,94.78
2022-11-30T11:02:34.810Z,179.03
2022-11-30T11:03:38.107Z,102.63
2022-11-30T11:04:39.951Z,60.44
2022-11-30T11:05:42.036Z,47.76
2022-11-30T11:06:56.896Z,34.09
2022-11-30T11:08:17.138Z,54.16
2022-11-30T11:09:36.440Z,41.29
2022-11-30T11:10:48.222Z,42.14
2022-11-30T11:11:59.573Z,47.86
2022-11-30T11:13:01.477Z,25.69
2022-11-30T11:14:20.439Z,18.22
2022-11-30T11:15:25.977Z,17.46
2022-11-30T11:16:27.824Z,16.79
2022-11-30T11:17:33.049Z,16.97
2022-11-30T11:18:55.457Z,16.63
2022-11-30T11:19:57.322Z,16.53
2022-11-30T11:21:14.513Z,19.18
2022-11-30T11:22:26.075Z,25.49
2022-11-30T11:23:37.419Z,23.97
2022-11-30T11:24:39.883Z,22.17
2022-11-30T11:25:43.146Z,21.79
2022-11-30T11:26:53.588Z,23.40
2022-11-30T11:28:04.478Z,21.56
2022-11-30T11:29:06.564Z,19.32
2022-11-30T11:30:08.951Z,17.38
2022-11-30T11:31:37.864Z,16.89
2022-11-30T11:32:39.747Z,16.78
2022-11-30T11:33:52.002Z,17.27
2022-11-30T11:34:54.566Z,20.55
2022-11-30T11:36:14.891Z,23.68
2022-11-30T11:37:28.964Z,30.40
2022-11-30T11:38:41.865Z,28.35
2022-11-30T11:39:43.675Z,26.06
2022-11-30T11:40:54.972Z,26.76
2022-11-30T11:41:57.188Z,23.60
2022-11-30T11:42:59.784Z,22.98
2022-11-30T11:44:21.451Z,20.76
2022-11-30T11:45:26.230Z,18.46
2022-11-30T11:46:29.964Z,17.61
2022-11-30T11:47:41.158Z,18.22
2022-11-30T11:48:57.827Z,18.23
2022-11-30T11:50:43.248Z,18.26
2022-11-30T11:51:45.264Z,17.03
2022-11-30T11:52:47.331Z,16.63
2022-11-30T11:54:11.366Z,17.68
2022-11-30T11:55:19.093Z,20.53
2022-11-30T11:56:36.502Z,22.96
2022-11-30T11:57:46.049Z,23.28
2022-11-30T11:58:51.740Z,23.06
2022-11-30T12:00:15.697Z,23.01
2022-11-30T12:01:56.227Z,24.26
2022-11-30T12:03:33.906Z,24.21
2022-11-30T12:04:46.727Z,24.25
2022-11-30T12:05:56.531Z,22.70
2022-11-30T12:07:04.252Z,22.55
2022-11-30T12:08:05.973Z,29.41
2022-11-30T12:09:18.318Z,31.02
2022-11-30T12:10:52.457Z,33.17
2022-11-30T12:11:55.020Z,32.92
2022-11-30T12:12:59.351Z,26.70
2022-11-30T12:14:09.312Z,23.07
2022-11-30T12:15:15.148Z,23.79
2022-11-30T12:16:28.933Z,23.02
2022-11-30T12:18:01.692Z,24.06
2022-11-30T12:19:20.433Z,22.69
2022-11-30T12:20:44.088Z,30.56
2022-11-30T12:22:13.420Z,59.64
2022-11-30T12:23:44.699Z,98.41
2022-11-30T12:25:08.723Z,60.77
2022-11-30T12:26:34.958Z,25.97
2022-11-30T12:28:17.216Z,20.78
2022-11-30T12:29:41.407Z,26.90
2022-11-30T12:31:01.352Z,26.22
2022-11-30T12:32:13.787Z,53.14
2022-11-30T12:33:47.388Z,44.15
2022-11-30T12:35:14.688Z,27.40
2022-11-30T12:36:43.894Z,31.86
2022-11-30T12:38:02.855Z,27.31
2022-11-30T12:39:38.723Z,26.50
2022-11-30T12:40:59.020Z,21.40
2022-11-30T12:42:28.800Z,21.46
2022-11-30T12:43:51.425Z,20.28
2022-11-30T12:45:11.665Z,25.20
2022-11-30T12:46:42.114Z,25.09
2022-11-30T12:48:08.323Z,23.87
2022-11-30T12:49:46.852Z,21.57
2022-11-30T12:51:10.411Z,20.63
2022-11-30T12:52:14.791Z,29.28
2022-11-30T12:53:22.578Z,30.87
2022-11-30T12:54:42.139Z,32.80
2022-11-30T12:55:59.166Z,34.69
2022-11-30T12:57:23.694Z,31.07
2022-11-30T12:58:46.533Z,25.67
2022-11-30T13:00:06.427Z,23.01
2022-11-30T13:01:14.745Z,21.67
2022-11-30T13:02:45.767Z,21.87
2022-11-30T13:03:58.502Z,23.88
2022-11-30T13:05:09.579Z,22.86
2022-11-30T13:06:27.007Z,22.30
2022-11-30T13:07:43.154Z,19.35
2022-11-30T13:09:00.257Z,19.10
2022-11-30T13:10:27.294Z,18.98
2022-11-30T13:11:41.370Z,19.13
2022-11-30T13:12:48.237Z,21.07
2022-11-30T13:13:56.097Z,25.66
2022-11-30T13:15:01.868Z,26.23
2022-11-30T13:16:08.289Z,27.92
2022-11-30T13:17:19.369Z,26.05
2022-11-30T13:18:23.900Z,25.62
2022-11-30T13:20:08.197Z,22.24
2022-11-30T13:21:26.774Z,24.68
2022-11-30T13:22:45.326Z,23.40
2022-11-30T13:24:13.480Z,20.96
2022-11-30T13:26:06.833Z,19.71
2022-11-30T13:27:16.921Z,19.09
2022-11-30T13:28:42.991Z,17.82
2022-11-30T13:29:59.340Z,22.50
2022-11-30T13:31:10.097Z,23.35
2022-11-30T13:32:34.292Z,19.20
2022-11-30T13:33:45.934Z,19.12
2022-11-30T13:34:47.947Z,18.44
2022-11-30T13:35:54.698Z,20.73
2022-11-30T13:37:27.318Z,21.57
2022-11-30T13:38:38.369Z,20.06
2022-11-30T13:40:22.475Z,20.09
2022-11-30T13:41:24.530Z,18.95
2022-11-30T13:42:32.738Z,19.09
2022-11-30T13:43:54.702Z,19.35
2022-11-30T13:44:58.149Z,19.20
2022-11-30T13:46:19.676Z,20.53
2022-11-30T13:47:36.298Z,19.95
2022-11-30T13:48:44.091Z,21.51
2022-11-30T13:49:47.232Z,21.85
2022-11-30T13:50:49.358Z,22.72
2022-11-30T13:52:20.007Z,26.54
2022-11-30T13:53:24.160Z,24.95
2022-11-30T13:54:58.245Z,19.98
2022-11-30T13:56:06.652Z,20.21
2022-11-30T13:57:28.781Z,20.19
2022-11-30T13:58:31.596Z,22.27
2022-11-30T13:59:36.361Z,21.65
2022-11-30T14:00:38.066Z,19.73
2022-11-30T14:01:40.002Z,18.57
2022-11-30T14:02:44.532Z,19.80
2022-11-30T14:04:15.782Z,22.83
2022-11-30T14:05:20.432Z,24.65
2022-11-30T14:06:45.674Z,22.17
2022-11-30T14:08:07.412Z,20.64
2022-11-30T14:09:37.238Z,22.58
2022-11-30T14:10:46.052Z,22.82
2022-11-30T14:11:47.835Z,23.86
2022-11-30T14:12:59.132Z,24.59
2022-11-30T14:14:44.879Z,26.46
2022-11-30T14:15:47.044Z,23.90
2022-11-30T14:16:49.625Z,21.37
2022-11-30T14:17:58.075Z,21.20
2022-11-30T14:19:00.876Z,28.09
2022-11-30T14:20:19.130Z,27.94
2022-11-30T14:21:38.988Z,26.54
2022-11-30T14:22:43.463Z,24.47
2022-11-30T14:24:12.658Z,25.85
2022-11-30T14:25:21.075Z,26.80